createdAt,value
2022-10-28T00:01:10.662Z,975.15
2022-10-28T00:03:42.391Z,981.13
2022-10-28T00:06:13.014Z,974.33
2022-10-28T00:08:40.151Z,974.38
2022-10-28T00:11:12.550Z,976.15
2022-10-28T00:13:40.522Z,975.03
2022-10-28T00:16:12.063Z,985.42
2022-10-28T00:18:39.765Z,985.13
2022-10-28T00:21:10.623Z,980.70
2022-10-28T00:23:38.350Z,976.15
2022-10-28T00:26:26.780Z,979.35
2022-10-28T00:28:59.469Z,981.88
2022-10-28T00:31:27.953Z,986.42
2022-10-28T00:33:55.045Z,984.28
2022-10-28T00:36:24.303Z,992.95
2022-10-28T00:38:52.765Z,987.10
2022-10-28T00:41:27.655Z,983.90
2022-10-28T00:43:57.011Z,984.65
2022-10-28T00:46:42.643Z,987.95
2022-10-28T00:49:26.141Z,984.03
2022-10-28T00:52:04.041Z,979.47
2022-10-28T00:54:31.510Z,975.77
2022-10-28T00:57:00.944Z,982.53
2022-10-28T00:59:37.508Z,985.92
2022-10-28T01:02:05.345Z,988.25
2022-10-28T01:04:32.347Z,986.45
2022-10-28T01:07:01.151Z,981.47
2022-10-28T01:09:28.152Z,983.03
2022-10-28T01:12:28.409Z,989.50
2022-10-28T01:15:15.069Z,979.47
2022-10-28T01:17:42.170Z,982.60
2022-10-28T01:20:45.329Z,976.38
2022-10-28T01:23:29.678Z,976.08
2022-10-28T01:25:59.889Z,981.97
2022-10-28T01:28:35.191Z,971.45
2022-10-28T01:31:29.882Z,969.60
2022-10-28T01:34:22.136Z,973.47
2022-10-28T01:36:56.485Z,973.08
2022-10-28T01:39:32.622Z,970.85
2022-10-28T01:42:17.307Z,967.90
2022-10-28T01:44:49.497Z,968.60
2022-10-28T01:47:33.667Z,963.90
2022-10-28T01:50:28.775Z,969.05
2022-10-28T01:53:00.108Z,971.15
2022-10-28T01:55:31.937Z,970.23
2022-10-28T01:58:02.412Z,967.83
2022-10-28T02:00:31.095Z,968.73
2022-10-28T02:02:57.967Z,974.85
2022-10-28T02:05:48.475Z,971.70
2022-10-28T02:08:35.847Z,970.15
2022-10-28T02:11:49.659Z,969.75
2022-10-28T02:14:16.861Z,964.97
2022-10-28T02:17:06.686Z,970.80
2022-10-28T02:19:50.533Z,964.72
2022-10-28T02:22:30.550Z,965.58
2022-10-28T02:25:02.837Z,969.17
2022-10-28T02:27:34.783Z,969.67
2022-10-28T02:30:30.413Z,969.95
2022-10-28T02:33:00.084Z,962.22
2022-10-28T02:35:45.828Z,965.40
2022-10-28T02:38:22.938Z,967.60
2022-10-28T02:40:54.492Z,962.83
2022-10-28T02:43:23.559Z,965.42
2022-10-28T02:45:55.361Z,961.95
2022-10-28T02:48:28.508Z,966.80
2022-10-28T02:51:02.487Z,966.17
2022-10-28T02:53:33.336Z,960.05
2022-10-28T02:56:02.387Z,958.95
2022-10-28T02:58:29.699Z,962.58
2022-10-28T03:00:56.885Z,955.95
2022-10-28T03:03:24.160Z,961.00
2022-10-28T03:05:51.282Z,960.88
2022-10-28T03:08:18.406Z,959.10
2022-10-28T03:10:45.548Z,962.03
2022-10-28T03:13:12.652Z,956.38
2022-10-28T03:15:39.759Z,963.25
2022-10-28T03:18:06.970Z,957.97
2022-10-28T03:20:34.088Z,963.35
2022-10-28T03:23:01.247Z,959.22
2022-10-28T03:25:28.465Z,968.45
2022-10-28T03:27:55.655Z,962.33
2022-10-28T03:30:22.755Z,962.78
2022-10-28T03:32:49.479Z,962.17
2022-10-28T03:35:16.702Z,962.95
2022-10-28T03:37:44.318Z,964.53
2022-10-28T03:40:12.145Z,961.20
2022-10-28T03:42:41.682Z,969.22
2022-10-28T03:45:09.638Z,964.90
2022-10-28T03:47:36.666Z,960.37
2022-10-28T03:50:03.634Z,959.38
2022-10-28T03:52:30.801Z,966.97
2022-10-28T03:54:57.988Z,958.08
2022-10-28T03:57:25.229Z,963.28
2022-10-28T03:59:52.359Z,962.85
2022-10-28T04:02:19.220Z,963.58
2022-10-28T04:04:46.483Z,968.00
2022-10-28T04:07:13.235Z,961.33
2022-10-28T04:09:42.076Z,962.33
2022-10-28T04:12:10.642Z,965.80
2022-10-28T04:14:37.846Z,963.77
2022-10-28T04:17:05.179Z,963.22
2022-10-28T04:19:32.251Z,960.20
2022-10-28T04:21:59.500Z,961.15
2022-10-28T04:24:26.616Z,965.03
2022-10-28T04:26:53.786Z,966.83
2022-10-28T04:29:20.954Z,967.17
2022-10-28T04:31:51.346Z,965.10
2022-10-28T04:34:19.549Z,964.35
2022-10-28T04:36:46.252Z,966.80
2022-10-28T04:39:13.614Z,965.63
2022-10-28T04:41:40.402Z,968.15
2022-10-28T04:44:07.073Z,969.10
2022-10-28T04:46:34.271Z,966.70
2022-10-28T04:49:01.422Z,968.17
2022-10-28T04:51:28.618Z,971.92
2022-10-28T04:53:55.868Z,971.08
2022-10-28T04:56:22.969Z,973.13
2022-10-28T04:58:50.094Z,971.70
2022-10-28T05:01:16.932Z,972.40
2022-10-28T05:03:43.731Z,969.78
2022-10-28T05:06:10.845Z,970.35
2022-10-28T05:08:37.971Z,972.42
2022-10-28T05:11:05.109Z,962.53
2022-10-28T05:13:32.261Z,965.85
2022-10-28T05:15:59.446Z,963.40
2022-10-28T05:18:26.673Z,966.95
2022-10-28T05:20:54.946Z,964.25
2022-10-28T05:23:25.755Z,966.13
2022-10-28T05:25:55.543Z,961.88
2022-10-28T05:28:22.249Z,963.10
2022-10-28T05:30:49.005Z,965.15
2022-10-28T05:33:16.175Z,965.67
2022-10-28T05:35:43.274Z,966.05
2022-10-28T05:38:10.494Z,965.92
2022-10-28T05:40:37.665Z,966.85
2022-10-28T05:43:04.841Z,966.67
2022-10-28T05:45:32.318Z,967.15
2022-10-28T05:47:59.469Z,972.35
2022-10-28T05:50:26.754Z,968.85
2022-10-28T05:52:56.708Z,965.97
2022-10-28T05:55:25.543Z,965.17
2022-10-28T05:57:53.341Z,962.17
2022-10-28T06:00:22.994Z,964.45
2022-10-28T06:02:50.311Z,968.53
2022-10-28T06:05:17.551Z,965.07
2022-10-28T06:07:44.737Z,963.37
2022-10-28T06:10:12.381Z,960.25
2022-10-28T06:12:38.281Z,960.83
2022-10-28T06:15:05.558Z,962.58
2022-10-28T06:17:32.722Z,956.43
2022-10-28T06:19:59.854Z,958.67
2022-10-28T06:22:27.094Z,959.57
2022-10-28T06:24:54.224Z,957.00
2022-10-28T06:27:21.435Z,972.37
2022-10-28T06:29:48.628Z,956.58
2022-10-28T06:32:15.777Z,954.42
2022-10-28T06:34:43.043Z,958.95
2022-10-28T06:37:10.330Z,962.30
2022-10-28T06:39:38.310Z,953.03
2022-10-28T06:42:05.520Z,954.38
2022-10-28T06:44:32.719Z,956.30
2022-10-28T06:47:01.402Z,954.85
2022-10-28T06:49:29.296Z,965.55
2022-10-28T06:51:56.627Z,960.75
2022-10-28T06:54:23.853Z,957.28
2022-10-28T06:56:51.216Z,960.33
2022-10-28T06:59:18.491Z,967.67
2022-10-28T07:01:45.753Z,964.15
2022-10-28T07:04:13.791Z,962.83
2022-10-28T07:06:41.077Z,965.67
2022-10-28T07:09:08.311Z,966.10
2022-10-28T07:11:35.424Z,969.20
2022-10-28T07:14:02.639Z,962.40
2022-10-28T07:16:29.733Z,966.15
2022-10-28T07:18:56.949Z,972.70
2022-10-28T07:21:28.314Z,965.25
2022-10-28T07:23:56.284Z,973.28
2022-10-28T07:26:23.709Z,972.60
2022-10-28T07:28:51.050Z,967.58
2022-10-28T07:31:18.575Z,976.30
2022-10-28T07:33:45.778Z,970.63
2022-10-28T07:36:12.900Z,962.60
2022-10-28T07:38:40.515Z,966.85
2022-10-28T07:41:08.740Z,971.55
2022-10-28T07:43:37.197Z,965.35
2022-10-28T07:46:05.497Z,968.80
2022-10-28T07:48:33.055Z,970.90
2022-10-28T07:51:04.553Z,974.22
2022-10-28T07:53:31.732Z,976.50
2022-10-28T07:56:01.148Z,970.05
2022-10-28T07:58:28.703Z,969.78
2022-10-28T08:00:56.100Z,981.78
2022-10-28T08:03:31.141Z,978.90
2022-10-28T08:06:09.982Z,981.28
2022-10-28T08:08:37.367Z,985.03
2022-10-28T08:11:19.034Z,993.25
2022-10-28T08:13:46.364Z,988.60
2022-10-28T08:16:13.726Z,990.90
2022-10-28T08:18:41.317Z,987.58
2022-10-28T08:21:10.051Z,997.37
2022-10-28T08:23:38.228Z,999.90
2022-10-28T08:26:05.943Z,991.10
2022-10-28T08:28:33.195Z,989.17
2022-10-28T08:31:08.649Z,984.90
2022-10-28T08:33:37.930Z,993.42
2022-10-28T08:36:05.640Z,997.43
2022-10-28T08:38:33.063Z,996.97
2022-10-28T08:41:15.862Z,993.58
2022-10-28T08:44:19.609Z,991.67
2022-10-28T08:46:56.468Z,982.10
2022-10-28T08:49:24.658Z,980.90
2022-10-28T08:51:58.298Z,978.90
2022-10-28T08:54:34.188Z,983.35
2022-10-28T08:57:03.507Z,987.22
2022-10-28T08:59:36.261Z,989.88
2022-10-28T09:02:12.663Z,999.90
2022-10-28T09:04:44.409Z,999.65
2022-10-28T09:07:17.901Z,992.17
2022-10-28T09:09:45.647Z,999.90
2022-10-28T09:12:18.055Z,999.90
2022-10-28T09:14:45.339Z,999.90
2022-10-28T09:17:20.227Z,999.90
2022-10-28T09:19:47.413Z,999.90
2022-10-28T09:22:28.976Z,999.90
2022-10-28T09:25:06.695Z,999.90
2022-10-28T09:27:36.951Z,999.90
2022-10-28T09:30:36.051Z,999.90
2022-10-28T09:33:06.055Z,999.90
2022-10-28T09:35:40.051Z,999.90
2022-10-28T09:38:21.948Z,999.90
2022-10-28T09:40:51.717Z,999.90
2022-10-28T09:43:36.002Z,999.85
2022-10-28T09:46:16.209Z,999.90
2022-10-28T09:48:55.666Z,999.90
2022-10-28T09:51:44.931Z,998.72
2022-10-28T09:54:13.671Z,999.90
2022-10-28T09:56:41.415Z,996.00
2022-10-28T09:59:13.283Z,999.90
2022-10-28T10:01:41.666Z,984.67
2022-10-28T10:04:18.047Z,990.25
2022-10-28T10:06:47.097Z,994.15
2022-10-28T10:09:23.545Z,985.33
2022-10-28T10:11:54.090Z,989.17
2022-10-28T10:14:36.769Z,990.00
2022-10-28T10:17:09.880Z,988.37
2022-10-28T10:20:10.584Z,998.63
2022-10-28T10:22:42.564Z,998.58
2022-10-28T10:25:18.371Z,990.78
2022-10-28T10:28:03.537Z,999.65
2022-10-28T10:30:48.155Z,987.47
2022-10-28T10:33:20.091Z,990.20
2022-10-28T10:36:00.174Z,989.60
2022-10-28T10:38:28.827Z,983.47
2022-10-28T10:40:55.920Z,988.85
2022-10-28T10:43:36.486Z,993.67
2022-10-28T10:46:13.784Z,996.13
2022-10-28T10:48:41.483Z,992.35
2022-10-28T10:51:25.866Z,993.33
2022-10-28T10:53:57.473Z,998.80
2022-10-28T10:56:27.285Z,991.38
2022-10-28T10:58:56.849Z,989.70
2022-10-28T11:01:27.255Z,995.45
2022-10-28T11:04:03.235Z,992.45
2022-10-28T11:06:32.723Z,991.78
2022-10-28T11:09:19.033Z,998.33
2022-10-28T11:11:45.828Z,989.85
2022-10-28T11:14:13.301Z,995.90
2022-10-28T11:16:50.477Z,999.90
2022-10-28T11:19:23.015Z,999.90
2022-10-28T11:22:12.253Z,999.90
2022-10-28T11:24:45.170Z,999.90
2022-10-28T11:27:19.699Z,999.90
2022-10-28T11:29:47.112Z,991.65
2022-10-28T11:32:25.977Z,991.27
2022-10-28T11:35:18.369Z,999.40
2022-10-28T11:38:14.185Z,996.22
2022-10-28T11:40:53.079Z,999.10
2022-10-28T11:43:57.650Z,991.70
2022-10-28T11:46:35.033Z,987.92
2022-10-28T11:49:26.361Z,994.33
2022-10-28T11:51:59.028Z,999.65
2022-10-28T11:54:29.053Z,999.90
2022-10-28T11:57:01.573Z,990.90
2022-10-28T11:59:39.967Z,999.90
2022-10-28T12:02:27.923Z,999.90
2022-10-28T12:04:55.205Z,999.90
2022-10-28T12:07:53.263Z,999.90
2022-10-28T12:10:36.712Z,999.90
2022-10-28T12:13:12.448Z,999.67
2022-10-28T12:15:45.203Z,999.42
2022-10-28T12:18:21.582Z,999.90
2022-10-28T12:20:54.169Z,998.13
2022-10-28T12:23:23.323Z,999.90
2022-10-28T12:25:55.289Z,999.90
2022-10-28T12:28:25.337Z,999.90
2022-10-28T12:30:53.446Z,999.90
2022-10-28T12:33:44.447Z,999.90
2022-10-28T12:36:37.042Z,999.90
2022-10-28T12:39:13.378Z,999.90
2022-10-28T12:41:58.597Z,999.90
2022-10-28T12:44:28.081Z,999.90
2022-10-28T12:47:04.561Z,999.90
2022-10-28T12:49:44.809Z,999.90
2022-10-28T12:52:49.803Z,999.90
2022-10-28T12:55:30.734Z,999.90
2022-10-28T12:58:23.699Z,999.90
2022-10-28T13:00:54.367Z,999.90
2022-10-28T13:03:21.609Z,999.90
2022-10-28T13:05:56.684Z,999.90
2022-10-28T13:09:02.962Z,999.90
2022-10-28T13:11:55.583Z,999.90
2022-10-28T13:14:47.200Z,999.90
2022-10-28T13:17:33.054Z,999.90
2022-10-28T13:20:09.219Z,999.90
2022-10-28T13:22:48.512Z,999.90
2022-10-28T13:25:15.560Z,999.90
2022-10-28T13:27:42.879Z,999.90
2022-10-28T13:30:18.200Z,999.90
2022-10-28T13:32:45.545Z,999.90
2022-10-28T13:35:12.859Z,999.90
2022-10-28T13:37:40.496Z,999.90
2022-10-28T13:40:43.581Z,999.90
2022-10-28T13:43:21.673Z,999.90
2022-10-28T13:45:55.305Z,999.90
2022-10-28T13:48:41.154Z,999.90
2022-10-28T13:51:11.715Z,999.90
2022-10-28T13:53:52.904Z,999.90
2022-10-28T13:56:22.596Z,999.90
2022-10-28T13:58:53.615Z,999.90
2022-10-28T14:01:36.280Z,999.90
2022-10-28T14:04:05.594Z,999.90
2022-10-28T14:06:34.955Z,999.90
2022-10-28T14:09:02.448Z,999.90
2022-10-28T14:11:30.285Z,999.90
2022-10-28T14:14:01.603Z,999.90
2022-10-28T14:16:39.128Z,999.90
2022-10-28T14:19:14.986Z,999.90
2022-10-28T14:22:01.549Z,999.90
2022-10-28T14:24:41.857Z,999.90
2022-10-28T14:27:09.288Z,999.90
2022-10-28T14:29:49.045Z,999.90
2022-10-28T14:32:31.218Z,999.90
2022-10-28T14:35:03.822Z,999.90
2022-10-28T14:37:49.105Z,999.90
2022-10-28T14:40:19.704Z,999.90
2022-10-28T14:43:12.061Z,999.90
2022-10-28T14:46:12.849Z,999.90
2022-10-28T14:48:45.463Z,999.90
2022-10-28T14:51:35.618Z,999.90
2022-10-28T14:54:03.369Z,999.90
2022-10-28T14:56:31.584Z,999.90
2022-10-28T14:59:15.011Z,999.90
2022-10-28T15:01:51.496Z,999.90
2022-10-28T15:04:18.991Z,999.90
2022-10-28T15:06:48.174Z,999.90
2022-10-28T15:09:31.330Z,999.90
2022-10-28T15:12:01.818Z,999.90
2022-10-28T15:14:52.781Z,999.90
2022-10-28T15:17:21.183Z,999.90
2022-10-28T15:19:51.384Z,999.90
2022-10-28T15:22:30.690Z,999.90
2022-10-28T15:24:58.855Z,999.90
2022-10-28T15:27:31.909Z,999.90
2022-10-28T15:29:58.934Z,999.90
2022-10-28T15:32:31.695Z,999.90
2022-10-28T15:34:59.220Z,999.90
2022-10-28T15:37:29.560Z,999.90
2022-10-28T15:40:20.635Z,999.90
2022-10-28T15:42:58.394Z,999.90
2022-10-28T15:45:28.122Z,999.90
2022-10-28T15:47:56.939Z,999.90
2022-10-28T15:50:34.973Z,999.90
2022-10-28T15:53:07.484Z,999.90
2022-10-28T15:55:41.708Z,999.90
2022-10-28T15:58:35.502Z,999.90
2022-10-28T16:01:02.920Z,999.90
2022-10-28T16:03:46.904Z,999.90
2022-10-28T16:06:32.525Z,999.90
2022-10-28T16:08:59.704Z,999.90
2022-10-28T16:11:26.970Z,999.90
2022-10-28T16:13:53.786Z,999.90
2022-10-28T16:16:28.507Z,999.90
2022-10-28T16:19:07.845Z,999.90
2022-10-28T16:21:35.868Z,999.90
2022-10-28T16:24:03.368Z,999.90
2022-10-28T16:26:32.684Z,999.90
2022-10-28T16:28:59.497Z,999.90
2022-10-28T16:31:28.481Z,999.90
2022-10-28T16:33:55.341Z,999.90
2022-10-28T16:36:22.121Z,999.90
2022-10-28T16:38:48.957Z,999.90
2022-10-28T16:41:18.364Z,999.90
2022-10-28T16:43:45.897Z,995.45
2022-10-28T16:46:14.021Z,999.78
2022-10-28T16:48:41.189Z,999.90
2022-10-28T16:51:18.044Z,999.90
2022-10-28T16:53:50.647Z,999.90
2022-10-28T16:56:18.290Z,999.90
2022-10-28T16:58:46.107Z,999.90
2022-10-28T17:01:17.940Z,999.90
2022-10-28T17:03:45.232Z,999.90
2022-10-28T17:06:12.405Z,999.90
2022-10-28T17:11:26.219Z,999.33
2022-10-28T17:13:53.030Z,999.90
2022-10-28T17:16:19.696Z,999.90
2022-10-28T17:18:49.605Z,999.15
2022-10-28T17:21:16.364Z,999.90
2022-10-28T17:23:43.515Z,999.90
2022-10-28T17:26:10.410Z,997.67
2022-10-28T17:28:37.048Z,999.25
2022-10-28T17:31:05.582Z,999.90
2022-10-28T17:33:32.592Z,999.90
2022-10-28T17:36:05.068Z,999.90
2022-10-28T17:38:32.100Z,992.35
2022-10-28T17:40:58.830Z,996.97
2022-10-28T17:43:25.542Z,993.30
2022-10-28T17:45:52.668Z,988.87
2022-10-28T17:48:19.455Z,997.80
2022-10-28T17:50:54.649Z,992.20
2022-10-28T17:53:22.116Z,989.25
2022-10-28T17:56:02.189Z,996.42
2022-10-28T17:58:29.045Z,995.53
2022-10-28T18:01:06.671Z,999.90
2022-10-28T18:03:38.241Z,996.07
2022-10-28T18:06:08.076Z,999.90
2022-10-28T18:08:37.307Z,993.55
2022-10-28T18:11:05.708Z,999.90
2022-10-28T18:13:34.459Z,999.90
2022-10-28T18:16:08.812Z,999.90
2022-10-28T18:18:41.006Z,999.83
2022-10-28T18:21:10.812Z,999.17
2022-10-28T18:23:37.985Z,991.83
2022-10-28T18:26:07.242Z,999.90
2022-10-28T18:28:36.090Z,999.90
2022-10-28T18:31:05.446Z,999.90
2022-10-28T18:33:33.097Z,999.90
2022-10-28T18:36:00.689Z,999.90
2022-10-28T18:38:27.472Z,999.90
2022-10-28T18:40:54.509Z,999.90
2022-10-28T18:43:22.798Z,999.90
2022-10-28T18:45:50.545Z,999.90
2022-10-28T18:48:17.961Z,999.90
2022-10-28T18:50:48.457Z,999.90
2022-10-28T18:53:16.080Z,999.90
2022-10-28T18:55:43.200Z,999.90
2022-10-28T18:58:14.201Z,999.90
2022-10-28T19:00:41.646Z,999.90
2022-10-28T19:03:22.717Z,999.90
2022-10-28T19:05:49.981Z,999.90
2022-10-28T19:08:17.136Z,999.90
2022-10-28T19:10:44.241Z,999.90
2022-10-28T19:13:11.003Z,999.90
2022-10-28T19:15:41.980Z,999.47
2022-10-28T19:18:08.787Z,999.90
2022-10-28T19:20:35.470Z,999.90
2022-10-28T19:23:02.726Z,999.90
2022-10-28T19:25:29.553Z,999.90
2022-10-28T19:27:58.626Z,999.90
2022-10-28T19:30:25.363Z,999.90
2022-10-28T19:32:52.453Z,999.90
2022-10-28T19:35:20.171Z,999.90
2022-10-28T19:37:47.279Z,999.90
2022-10-28T19:40:14.497Z,999.90
2022-10-28T19:42:41.723Z,999.90
2022-10-28T19:45:09.394Z,999.28
2022-10-28T19:47:36.587Z,999.90
2022-10-28T19:50:03.984Z,999.90
2022-10-28T19:52:30.637Z,999.90
2022-10-28T19:54:57.392Z,999.90
2022-10-28T19:57:24.441Z,999.90
2022-10-28T19:59:51.624Z,994.47
2022-10-28T20:02:18.933Z,994.25
2022-10-28T20:04:48.495Z,998.40
2022-10-28T20:07:15.631Z,999.90
2022-10-28T20:09:42.418Z,993.72
2022-10-28T20:12:09.647Z,999.05
2022-10-28T20:14:36.864Z,992.00
2022-10-28T20:17:06.764Z,998.08
2022-10-28T20:19:34.242Z,989.47
2022-10-28T20:22:01.293Z,992.47
2022-10-28T20:24:28.001Z,993.58
2022-10-28T20:26:55.151Z,989.47
2022-10-28T20:29:22.225Z,996.78
2022-10-28T20:31:48.985Z,999.90
2022-10-28T20:34:15.689Z,992.88
2022-10-28T20:36:46.307Z,997.70
2022-10-28T20:39:17.981Z,990.03
2022-10-28T20:41:46.022Z,997.50
2022-10-28T20:44:13.326Z,999.80
2022-10-28T20:46:40.391Z,999.90
2022-10-28T20:49:08.872Z,999.90
2022-10-28T20:51:36.579Z,999.90
2022-10-28T20:54:03.419Z,999.90
2022-10-28T20:56:33.441Z,999.90
2022-10-28T20:59:00.835Z,999.90
2022-10-28T21:01:33.756Z,999.50
2022-10-28T21:04:03.198Z,995.92
2022-10-28T21:06:30.804Z,998.22
2022-10-28T21:08:58.461Z,998.78
2022-10-28T21:11:26.196Z,991.50
2022-10-28T21:13:55.453Z,994.67
2022-10-28T21:16:22.632Z,995.25
2022-10-28T21:18:50.269Z,991.45
2022-10-28T21:21:18.068Z,992.13
2022-10-28T21:23:44.962Z,988.95
2022-10-28T21:26:12.621Z,994.28
2022-10-28T21:28:42.810Z,995.60
2022-10-28T21:31:12.046Z,991.83
2022-10-28T21:33:39.556Z,993.13
2022-10-28T21:36:14.796Z,996.33
2022-10-28T21:38:41.729Z,995.43
2022-10-28T21:41:11.347Z,989.72
2022-10-28T21:43:40.496Z,993.37
2022-10-28T21:46:08.113Z,989.90
2022-10-28T21:48:36.825Z,992.63
2022-10-28T21:51:09.948Z,990.70
2022-10-28T21:53:42.049Z,997.08
2022-10-28T21:56:17.775Z,989.28
2022-10-28T21:58:49.694Z,993.17
2022-10-28T22:01:22.770Z,993.60
2022-10-28T22:03:51.460Z,998.80
2022-10-28T22:06:18.204Z,989.30
2022-10-28T22:08:46.656Z,991.80
2022-10-28T22:11:19.421Z,997.58
2022-10-28T22:13:46.818Z,994.10
2022-10-28T22:16:15.518Z,995.57
2022-10-28T22:18:42.781Z,994.33
2022-10-28T22:21:25.278Z,990.88
2022-10-28T22:23:52.806Z,993.17
2022-10-28T22:26:25.826Z,990.97
2022-10-28T22:28:53.167Z,999.90
2022-10-28T22:31:23.192Z,998.95
2022-10-28T22:33:50.357Z,992.60
2022-10-28T22:36:20.062Z,995.25
2022-10-28T22:38:47.336Z,993.92
2022-10-28T22:41:15.085Z,987.20
2022-10-28T22:43:43.178Z,991.03
2022-10-28T22:46:10.959Z,996.43
2022-10-28T22:48:38.092Z,999.90
2022-10-28T22:51:05.309Z,993.90
2022-10-28T22:53:31.985Z,997.92
2022-10-28T22:55:58.803Z,999.90
2022-10-28T22:58:27.412Z,999.50
2022-10-28T23:00:54.285Z,999.90
2022-10-28T23:03:20.967Z,999.90
2022-10-28T23:05:48.165Z,995.17
2022-10-28T23:08:16.235Z,995.03
2022-10-28T23:10:43.046Z,998.13
2022-10-28T23:13:13.589Z,995.17
2022-10-28T23:15:40.455Z,991.40
2022-10-28T23:18:07.200Z,991.30
2022-10-28T23:20:35.689Z,996.97
2022-10-28T23:23:02.769Z,995.97
2022-10-28T23:25:29.579Z,987.90
2022-10-28T23:27:56.613Z,990.60
2022-10-28T23:30:24.029Z,986.08
2022-10-28T23:32:50.674Z,985.13
2022-10-28T23:35:17.434Z,987.57
2022-10-28T23:37:44.584Z,995.55
2022-10-28T23:40:11.632Z,990.75
2022-10-28T23:42:38.382Z,996.17
2022-10-28T23:45:05.798Z,999.72
2022-10-28T23:47:33.201Z,988.57
2022-10-28T23:49:59.872Z,988.97
2022-10-28T23:52:26.556Z,991.13
2022-10-28T23:54:53.272Z,989.90
2022-10-28T23:57:19.960Z,989.85
2022-10-28T23:59:46.679Z,989.70
